Time;durP1;ratioP1;P1;durP2;ratioP2;P2;SDS_P1;SDS_P2;PMS_P1;PMS_P2;Temp;Humidity;BMP_temperature;BMP_pressure;BME280_temperature;BME280_humidity;BME280_pressure;Samples;Min_cycle;Max_cycle;Signal;HPM_P1;HPM_P2
2023/06/05 00:00:26;;;;;;;7.00;5.43;;;;;;;17.44;nan;99452.22;5023175;28;20237;-84
2023/06/05 00:02:51;;;;;;;6.93;5.87;;;;;;;17.38;nan;99447.47;5019782;28;20218;-81
2023/06/05 00:05:18;;;;;;;8.50;7.70;;;;;;;17.29;nan;99451.00;5024418;28;20529;-79
2023/06/05 00:07:43;;;;;;;8.80;6.60;;;;;;;17.11;nan;99450.06;5024744;28;20240;-81
2023/06/05 00:10:09;;;;;;;6.53;5.70;;;;;;;16.91;nan;99450.09;5023536;28;20491;-81
2023/06/05 00:12:36;;;;;;;7.87;5.30;;;;;;;16.80;nan;99451.09;5024322;28;20318;-79
2023/06/05 00:15:01;;;;;;;5.90;5.00;;;;;;;16.78;nan;99450.41;5021790;28;20883;-80
2023/06/05 00:17:28;;;;;;;10.07;5.00;;;;;;;16.80;nan;99439.66;5023813;28;20477;-83
2023/06/05 00:19:53;;;;;;;5.97;5.33;;;;;;;16.81;nan;99449.28;5022482;28;20573;-83
2023/06/05 00:22:19;;;;;;;5.43;4.63;;;;;;;16.83;nan;99449.97;5026646;28;20471;-81
2023/06/05 00:24:45;;;;;;;8.47;5.30;;;;;;;16.85;nan;99439.22;5025263;28;20306;-82
2023/06/05 00:27:10;;;;;;;5.37;4.87;;;;;;;16.84;nan;99443.69;5023647;28;20233;-80
2023/06/05 00:29:36;;;;;;;6.00;4.10;;;;;;;16.84;nan;99446.34;5022520;28;20312;-79
2023/06/05 00:32:01;;;;;;;6.00;4.63;;;;;;;16.82;nan;99448.28;5022096;28;20755;-80
2023/06/05 00:34:27;;;;;;;6.07;4.90;;;;;;;16.83;nan;99449.16;5023495;28;20514;-81
2023/06/05 00:36:52;;;;;;;5.07;3.90;;;;;;;16.80;nan;99442.31;5019284;28;20255;-81
2023/06/05 00:39:18;;;;;;;6.13;3.83;;;;;;;16.77;nan;99442.59;5022009;28;20213;-79
2023/06/05 00:41:45;;;;;;;8.13;4.87;;;;;;;16.73;nan;99431.38;5023825;28;20698;-84
2023/06/05 00:44:11;;;;;;;5.77;3.63;;;;;;;16.74;nan;99441.03;5023352;28;20463;-83
2023/06/05 00:46:38;;;;;;;5.07;3.90;;;;;;;16.75;nan;99437.38;5022449;28;20597;-84
2023/06/05 00:49:04;;;;;;;3.77;3.43;;;;;;;16.78;nan;99434.47;5022899;28;20321;-80
2023/06/05 00:51:30;;;;;;;4.77;3.23;;;;;;;16.79;nan;99437.97;5022597;28;20478;-82
2023/06/05 00:53:56;;;;;;;5.50;3.67;;;;;;;16.76;nan;99439.03;5021938;28;20474;-83
2023/06/05 00:56:23;;;;;;;5.27;4.10;;;;;;;16.70;nan;99436.97;5022320;28;20219;-82
2023/06/05 00:58:49;;;;;;;4.00;3.17;;;;;;;16.64;nan;99434.06;5023436;28;21042;-79
2023/06/05 01:01:16;;;;;;;3.40;3.10;;;;;;;16.58;nan;99436.28;5021058;28;20539;-83
2023/06/05 01:03:44;;;;;;;4.07;3.23;;;;;;;16.56;nan;99440.88;5019071;28;20459;-81
2023/06/05 01:06:11;;;;;;;4.60;3.50;;;;;;;16.57;nan;99439.91;5022735;28;20453;-79
2023/06/05 01:08:41;;;;;;;5.10;3.23;;;;;;;16.59;nan;99443.25;5022212;28;20705;-81
2023/06/05 01:11:28;;;;;;;5.93;3.10;;;;;;;16.59;nan;99448.56;5021440;28;20489;-81
2023/06/05 01:14:16;;;;;;;4.60;3.20;;;;;;;16.60;nan;99449.38;5021739;28;20544;-81
2023/06/05 01:16:44;;;;;;;4.20;3.10;;;;;;;16.60;nan;99446.72;5022193;28;20489;-81
2023/06/05 01:19:14;;;;;;;5.07;4.00;;;;;;;16.59;nan;99450.38;5020141;28;21088;-81
2023/06/05 01:21:40;;;;;;;5.90;3.90;;;;;;;16.58;nan;99446.91;5021575;28;20700;-84
2023/06/05 01:24:05;;;;;;;4.10;3.70;;;;;;;16.56;nan;99443.53;5020872;28;20478;-82
2023/06/05 01:26:52;;;;;;;4.53;3.80;;;;;;;16.57;nan;99444.38;5019650;28;20575;-80
2023/06/05 01:29:24;;;;;;;3.47;3.17;;;;;;;16.57;nan;99439.06;5023988;28;20310;-81
2023/06/05 01:31:56;;;;;;;5.63;3.77;;;;;;;16.57;nan;99442.53;5024607;28;20905;-80
2023/06/05 01:34:24;;;;;;;5.17;3.60;;;;;;;16.53;nan;99441.16;5024667;28;20671;-80
2023/06/05 01:36:50;;;;;;;4.40;3.87;;;;;;;16.48;nan;99448.69;5025108;28;21059;-79
2023/06/05 01:39:18;;;;;;;5.20;3.50;;;;;;;16.43;nan;99450.94;5025584;28;20484;-79
2023/06/05 01:41:44;;;;;;;4.60;4.10;;;;;;;16.36;nan;99447.16;5035115;28;20494;-80
2023/06/05 01:44:12;;;;;;;7.07;4.47;;;;;;;16.31;nan;99447.59;5024143;28;20473;-82
2023/06/05 01:46:38;;;;;;;6.77;3.90;;;;;;;16.26;nan;99448.97;5023909;28;20850;-80
2023/06/05 01:49:05;;;;;;;4.67;3.90;;;;;;;16.12;nan;99451.03;5022502;28;20485;-79
2023/06/05 01:51:30;;;;;;;6.30;4.18;;;;;;;16.03;nan;99449.19;5024053;28;20236;-82
2023/06/05 01:53:57;;;;;;;5.67;3.50;;;;;;;16.03;nan;99459.78;5024376;28;20235;-82
2023/06/05 01:56:23;;;;;;;7.67;4.07;;;;;;;15.98;nan;99459.38;5021788;28;20656;-81
2023/06/05 01:58:49;;;;;;;7.45;4.13;;;;;;;15.96;nan;99455.16;5024237;28;20989;-79
2023/06/05 02:01:16;;;;;;;6.67;4.17;;;;;;;15.95;nan;99450.84;5023134;28;20335;-82
2023/06/05 02:03:47;;;;;;;4.30;3.90;;;;;;;15.94;nan;99447.38;5025846;28;20212;-83
2023/06/05 02:06:14;;;;;;;4.03;3.55;;;;;;;15.90;nan;99456.56;5025101;28;20494;-80
2023/06/05 02:08:40;;;;;;;5.70;4.07;;;;;;;15.84;nan;99446.50;5023271;28;20276;-79
2023/06/05 02:11:09;;;;;;;4.43;4.00;;;;;;;15.85;nan;99454.34;5024864;28;20986;-79
2023/06/05 02:13:41;;;;;;;4.90;3.85;;;;;;;15.84;nan;99451.81;5024221;28;20227;-84
2023/06/05 02:16:10;;;;;;;4.70;3.77;;;;;;;15.83;nan;99456.28;5018497;28;20606;-82
2023/06/05 02:18:37;;;;;;;4.17;3.60;;;;;;;15.83;nan;99450.13;5022719;28;20879;-78
2023/06/05 02:21:03;;;;;;;4.55;4.03;;;;;;;15.81;nan;99460.03;5022270;28;20487;-79
2023/06/05 02:23:29;;;;;;;4.32;3.60;;;;;;;15.79;nan;99460.16;5021455;28;20217;-83
2023/06/05 02:25:55;;;;;;;4.67;4.17;;;;;;;15.73;nan;99459.84;5023940;28;20230;-83
2023/06/05 02:28:21;;;;;;;6.30;3.97;;;;;;;15.63;nan;99463.25;5024702;28;20864;-80
2023/06/05 02:30:47;;;;;;;5.17;4.00;;;;;;;15.57;nan;99468.25;5021733;28;20496;-79
2023/06/05 02:33:14;;;;;;;8.63;4.55;;;;;;;15.53;nan;99458.91;5022966;28;20441;-78
2023/06/05 02:35:40;;;;;;;4.65;4.25;;;;;;;15.52;nan;99463.34;5021213;28;20216;-80
2023/06/05 02:38:10;;;;;;;4.30;3.90;;;;;;;15.52;nan;99455.41;5021338;28;20211;-81
2023/06/05 02:40:35;;;;;;;4.80;4.13;;;;;;;15.54;nan;99457.94;5021800;28;20926;-81
2023/06/05 02:43:01;;;;;;;4.63;3.00;;;;;;;15.53;nan;99465.06;5021821;28;20230;-81
2023/06/05 02:45:27;;;;;;;4.57;3.43;;;;;;;15.53;nan;99462.41;5024824;28;20218;-85
2023/06/05 02:47:52;;;;;;;5.60;3.70;;;;;;;15.51;nan;99456.41;5022277;28;21093;-80
2023/06/05 02:50:18;;;;;;;6.93;3.73;;;;;;;15.49;nan;99459.16;5021510;28;20230;-79
2023/06/05 02:52:48;;;;;;;5.03;3.85;;;;;;;15.46;nan;99456.78;5023279;28;20690;-79
2023/06/05 02:55:20;;;;;;;3.90;3.38;;;;;;;15.42;nan;99462.50;5022351;28;20710;-82
2023/06/05 02:57:48;;;;;;;4.30;3.20;;;;;;;15.34;nan;99468.44;5021431;28;20213;-82
2023/06/05 03:00:17;;;;;;;3.80;3.50;;;;;;;15.31;nan;99463.41;5020140;28;21375;-83
2023/06/05 03:02:48;;;;;;;5.20;3.15;;;;;;;15.30;nan;99464.38;5020333;28;20208;-79
2023/06/05 03:05:24;;;;;;;4.55;3.97;;;;;;;15.30;nan;99463.53;5034588;28;20241;-81
2023/06/05 03:07:54;;;;;;;4.35;3.17;;;;;;;15.30;nan;99466.19;5021373;28;20221;-78
2023/06/05 03:10:21;;;;;;;3.70;3.40;;;;;;;15.29;nan;99465.34;5022168;28;20222;-83
2023/06/05 03:12:47;;;;;;;8.55;3.15;;;;;;;15.27;nan;99467.28;5026523;28;20307;-79
2023/06/05 03:15:14;;;;;;;5.27;2.83;;;;;;;15.21;nan;99471.28;5023531;28;20314;-83
2023/06/05 03:17:41;;;;;;;4.60;3.42;;;;;;;15.15;nan;99477.13;5022187;28;20209;-83
2023/06/05 03:20:09;;;;;;;4.18;2.67;;;;;;;15.08;nan;99473.31;5030018;28;20222;-82
2023/06/05 03:22:35;;;;;;;4.40;3.38;;;;;;;14.99;nan;99479.38;5025883;28;20239;-80
2023/06/05 03:25:00;;;;;;;4.40;4.00;;;;;;;14.92;nan;99473.75;5023444;28;20239;-82
2023/06/05 03:27:26;;;;;;;4.25;3.55;;;;;;;14.82;nan;99471.06;5023956;28;20219;-79
2023/06/05 03:29:52;;;;;;;7.40;4.00;;;;;;;14.72;nan;99475.41;5024875;28;20708;-79
2023/06/05 03:32:18;;;;;;;4.93;4.30;;;;;;;14.66;nan;99477.72;5023066;28;20496;-82
2023/06/05 03:34:48;;;;;;;4.50;3.28;;;;;;;14.63;nan;99472.69;5021984;28;20633;-81
2023/06/05 03:37:14;;;;;;;4.43;3.38;;;;;;;14.62;nan;99471.03;5041001;28;20707;-81
2023/06/05 03:39:40;;;;;;;4.30;4.00;;;;;;;14.65;nan;99490.09;5025588;28;20224;-78
2023/06/05 03:42:10;;;;;;;3.87;2.97;;;;;;;14.67;nan;99484.69;5024707;28;20284;-82
2023/06/05 03:44:36;;;;;;;7.00;4.13;;;;;;;14.68;nan;99484.56;5032243;28;20540;-78
2023/06/05 03:47:02;;;;;;;3.63;3.23;;;;;;;14.71;nan;99486.94;5021871;28;20217;-80
2023/06/05 03:49:29;;;;;;;3.85;3.20;;;;;;;14.68;nan;99487.19;5021225;28;20833;-78
2023/06/05 03:52:01;;;;;;;4.50;3.30;;;;;;;14.65;nan;99489.28;5022584;28;20300;-82
2023/06/05 03:54:32;;;;;;;5.28;3.80;;;;;;;14.62;nan;99484.25;5023476;28;20225;-82
2023/06/05 03:57:00;;;;;;;4.00;3.60;;;;;;;14.56;nan;99498.81;5023890;28;20217;-80
2023/06/05 03:59:28;;;;;;;5.32;3.50;;;;;;;14.54;nan;99492.78;5033336;28;20219;-80
2023/06/05 04:01:57;;;;;;;4.22;3.83;;;;;;;14.50;nan;99493.97;5032989;28;20211;-78
2023/06/05 04:04:23;;;;;;;5.57;4.15;;;;;;;14.46;nan;99495.19;5024693;28;20741;-79
2023/06/05 04:06:50;;;;;;;6.05;4.90;;;;;;;14.43;nan;99501.56;5024604;28;20216;-82
2023/06/05 04:09:17;;;;;;;5.37;3.80;;;;;;;14.44;nan;99492.66;5039564;28;20316;-82
2023/06/05 04:11:44;;;;;;;5.78;4.45;;;;;;;14.48;nan;99499.38;5038145;28;20832;-83
2023/06/05 04:14:10;;;;;;;6.03;4.07;;;;;;;14.56;nan;99499.63;5022696;28;20295;-79
2023/06/05 04:16:43;;;;;;;4.90;3.97;;;;;;;14.61;nan;99501.91;5033668;28;20282;-83
2023/06/05 04:19:12;;;;;;;4.65;3.60;;;;;;;14.59;nan;99506.47;5024401;28;20210;-81
2023/06/05 04:21:41;;;;;;;5.38;4.30;;;;;;;14.57;nan;99503.09;5024436;28;20535;-79
2023/06/05 04:24:09;;;;;;;5.35;4.30;;;;;;;14.53;nan;99502.53;5024178;28;20211;-83
2023/06/05 04:26:41;;;;;;;7.32;4.40;;;;;;;14.51;nan;99503.59;5026051;28;20746;-79
2023/06/05 04:29:13;;;;;;;5.70;4.07;;;;;;;14.49;nan;99502.88;5024732;28;20214;-79
2023/06/05 04:31:40;;;;;;;5.65;4.65;;;;;;;14.49;nan;99501.06;5024790;28;20250;-79
2023/06/05 04:34:08;;;;;;;4.82;3.72;;;;;;;14.52;nan;99505.25;5022217;28;20207;-79
2023/06/05 04:36:34;;;;;;;5.85;4.90;;;;;;;14.64;nan;99508.75;5023186;28;20429;-78
2023/06/05 04:39:03;;;;;;;6.00;4.22;;;;;;;14.72;nan;99507.16;5023567;28;20209;-78
2023/06/05 04:41:32;;;;;;;4.47;3.70;;;;;;;14.85;nan;99511.41;5023683;28;20233;-81
2023/06/05 04:44:00;;;;;;;5.50;3.95;;;;;;;14.99;nan;99513.75;5023774;28;20215;-80
2023/06/05 04:46:27;;;;;;;3.83;3.38;;;;;;;15.13;nan;99510.78;5013571;28;20216;-81
2023/06/05 04:48:55;;;;;;;5.27;4.10;;;;;;;15.40;nan;99522.66;5015597;28;20587;-80
2023/06/05 04:51:22;;;;;;;3.65;3.20;;;;;;;15.82;nan;99517.31;5024820;28;20688;-80
2023/06/05 04:53:52;;;;;;;5.57;3.72;;;;;;;16.30;nan;99517.44;5019349;28;20372;-82
2023/06/05 04:56:21;;;;;;;4.85;3.63;;;;;;;16.88;nan;99505.28;5018006;28;20264;-81
2023/06/05 04:58:50;;;;;;;4.13;3.72;;;;;;;17.45;nan;99514.94;5017099;28;20224;-80
2023/06/05 05:01:16;;;;;;;8.25;3.63;;;;;;;17.99;nan;99512.53;5027444;28;20704;-80
2023/06/05 05:03:42;;;;;;;7.93;3.60;;;;;;;18.53;nan;99508.16;5019596;28;20777;-82
2023/06/05 05:06:10;;;;;;;6.67;3.77;;;;;;;19.06;nan;99501.16;5019668;28;20204;-80
2023/06/05 05:08:37;;;;;;;4.73;3.90;;;;;;;19.55;nan;99505.97;5035192;28;20469;-80
2023/06/05 05:11:02;;;;;;;4.77;3.60;;;;;;;19.98;nan;99497.06;5018461;28;20542;-81
2023/06/05 05:13:28;;;;;;;5.40;3.77;;;;;;;20.37;nan;99501.03;5023070;28;20304;-80
2023/06/05 05:15:54;;;;;;;6.30;3.90;;;;;;;20.73;nan;99498.94;5019590;28;20461;-80
2023/06/05 05:18:20;;;;;;;6.17;4.13;;;;;;;21.02;nan;99493.09;5022252;28;20946;-82
2023/06/05 05:20:46;;;;;;;6.40;3.83;;;;;;;21.26;nan;99494.91;5019728;28;20781;-81
2023/06/05 05:23:12;;;;;;;4.87;3.43;;;;;;;21.60;nan;99496.53;5022975;28;21104;-81
2023/06/05 05:25:38;;;;;;;4.47;3.47;;;;;;;21.81;nan;99499.47;5021307;28;20463;-82
2023/06/05 05:28:04;;;;;;;4.57;3.53;;;;;;;21.85;nan;99495.47;5022845;28;20294;-80
2023/06/05 05:30:30;;;;;;;4.83;3.70;;;;;;;22.02;nan;99495.41;5020363;28;20474;-82
2023/06/05 05:32:56;;;;;;;5.53;3.90;;;;;;;22.27;nan;99485.41;5017581;28;20481;-81
2023/06/05 05:35:22;;;;;;;6.03;3.80;;;;;;;22.57;nan;99489.06;5022573;28;20222;-81
2023/06/05 05:37:47;;;;;;;5.13;3.50;;;;;;;22.87;nan;99492.72;5023579;28;20511;-81
2023/06/05 05:40:13;;;;;;;4.30;3.37;;;;;;;23.14;nan;99498.53;5022446;28;20786;-82
2023/06/05 05:42:39;;;;;;;3.67;3.10;;;;;;;23.34;nan;99486.28;5024127;28;20827;-81
2023/06/05 05:45:05;;;;;;;6.10;3.70;;;;;;;23.58;nan;99489.72;5021766;28;20494;-80
2023/06/05 05:47:30;;;;;;;4.40;4.00;;;;;;;23.76;nan;99497.41;5021517;28;20217;-80
2023/06/05 05:49:56;;;;;;;4.10;3.40;;;;;;;23.95;nan;99498.69;5021723;28;20464;-82
2023/06/05 05:52:22;;;;;;;5.30;3.80;;;;;;;24.08;nan;99499.69;5025297;28;20198;-81
2023/06/05 05:54:48;;;;;;;4.57;3.57;;;;;;;24.31;nan;99503.28;5020621;28;20993;-81
2023/06/05 05:57:13;;;;;;;3.63;3.23;;;;;;;24.57;nan;99495.53;5022412;28;20941;-81
2023/06/05 05:59:42;;;;;;;5.33;3.70;;;;;;;24.82;nan;99492.47;5023907;28;20574;-80
2023/06/05 06:02:09;;;;;;;4.97;3.57;;;;;;;25.08;nan;99492.69;5023910;28;20346;-82
2023/06/05 06:04:35;;;;;;;7.70;4.50;;;;;;;25.17;nan;99496.13;5024190;28;20446;-81
2023/06/05 06:07:02;;;;;;;4.47;3.87;;;;;;;25.23;nan;99495.31;5025833;28;20251;-81
2023/06/05 06:09:28;;;;;;;4.30;3.50;;;;;;;25.40;nan;99490.47;5023523;28;20548;-81
2023/06/05 06:11:55;;;;;;;5.47;4.97;;;;;;;25.64;nan;99486.50;5023714;28;20503;-81
2023/06/05 06:14:22;;;;;;;4.60;3.07;;;;;;;25.82;nan;99488.66;5024334;28;20454;-81
2023/06/05 06:16:48;;;;;;;4.93;3.10;;;;;;;25.98;nan;99490.22;5023163;28;20439;-80
2023/06/05 06:19:14;;;;;;;4.13;3.70;;;;;;;26.15;nan;99496.09;5025892;28;21030;-80
2023/06/05 06:21:40;;;;;;;5.90;3.83;;;;;;;26.38;nan;99493.88;5025481;28;20227;-81
2023/06/05 06:24:05;;;;;;;6.00;4.03;;;;;;;26.55;nan;99491.69;5024487;28;20509;-81
2023/06/05 06:26:31;;;;;;;5.33;3.83;;;;;;;26.72;nan;99493.97;5024096;28;20469;-81
2023/06/05 06:28:59;;;;;;;4.93;3.47;;;;;;;26.67;nan;99489.19;5025294;28;20233;-80
2023/06/05 06:31:24;;;;;;;4.30;3.23;;;;;;;26.58;nan;99488.56;5022770;28;20873;-81
2023/06/05 06:33:50;;;;;;;3.70;3.20;;;;;;;26.69;nan;99493.34;5024690;28;20467;-81
2023/06/05 06:36:17;;;;;;;4.90;3.87;;;;;;;26.97;nan;99495.03;5023714;28;20244;-80
2023/06/05 06:38:43;;;;;;;4.53;3.50;;;;;;;27.21;nan;99488.22;5024183;28;20684;-81
2023/06/05 06:41:09;;;;;;;5.70;3.47;;;;;;;27.42;nan;99497.13;5025240;28;20508;-81
2023/06/05 06:43:34;;;;;;;3.83;3.53;;;;;;;27.55;nan;99494.41;5019966;28;20614;-81
2023/06/05 06:46:01;;;;;;;4.60;3.83;;;;;;;27.67;nan;99494.56;5025381;28;20200;-81
2023/06/05 06:48:27;;;;;;;7.77;4.33;;;;;;;27.68;nan;99493.50;5022473;28;20536;-81
2023/06/05 06:50:52;;;;;;;6.00;4.50;;;;;;;27.55;nan;99492.53;5023017;28;20213;-82
2023/06/05 06:53:18;;;;;;;5.20;2.93;;;;;;;27.54;nan;99498.13;5022837;28;20299;-82
2023/06/05 06:55:44;;;;;;;5.03;4.50;;;;;;;27.70;nan;99494.13;5021780;28;20209;-80
2023/06/05 06:58:09;;;;;;;5.97;4.10;;;;;;;27.83;nan;99496.84;5023079;28;20423;-81
2023/06/05 07:00:35;;;;;;;4.90;3.13;;;;;;;27.86;nan;99495.59;5023323;28;20741;-81
2023/06/05 07:03:01;;;;;;;3.70;3.40;;;;;;;28.10;nan;99494.03;5023385;28;20704;-81
2023/06/05 07:05:27;;;;;;;5.50;3.40;;;;;;;28.32;nan;99489.16;5022314;28;20208;-80
2023/06/05 07:07:52;;;;;;;4.67;4.27;;;;;;;28.45;nan;99489.94;5021490;28;20588;-81
2023/06/05 07:10:17;;;;;;;3.67;3.10;;;;;;;28.49;nan;99494.91;5022875;28;20218;-82
2023/06/05 07:12:43;;;;;;;4.30;3.90;;;;;;;28.35;nan;99491.41;5022571;28;20231;-81
2023/06/05 07:15:08;;;;;;;3.73;3.00;;;;;;;28.19;nan;99484.63;5021762;28;20572;-81
2023/06/05 07:17:34;;;;;;;5.00;3.47;;;;;;;28.22;nan;99489.63;5020886;28;20206;-80
2023/06/05 07:20:00;;;;;;;5.47;4.97;;;;;;;28.42;nan;99484.94;5021233;28;20312;-81
2023/06/05 07:22:27;;;;;;;3.70;3.40;;;;;;;28.71;nan;99477.31;5019933;28;20433;-80
2023/06/05 07:24:53;;;;;;;4.73;3.80;;;;;;;28.88;nan;99478.41;5022119;28;20218;-80
2023/06/05 07:27:20;;;;;;;4.73;3.53;;;;;;;29.02;nan;99473.72;5020789;28;20457;-80
2023/06/05 07:29:46;;;;;;;5.23;3.90;;;;;;;29.07;nan;99481.22;5029515;28;20907;-81
2023/06/05 07:32:12;;;;;;;5.20;3.80;;;;;;;29.13;nan;99483.03;5021922;28;20986;-80
2023/06/05 07:34:38;;;;;;;4.07;3.37;;;;;;;29.19;nan;99473.19;5020431;28;20450;-80
2023/06/05 07:37:04;;;;;;;3.70;3.40;;;;;;;29.29;nan;99479.75;5021203;28;20211;-81
2023/06/05 07:39:30;;;;;;;4.93;4.00;;;;;;;29.33;nan;99475.56;5021123;28;20461;-81
2023/06/05 07:41:56;;;;;;;3.20;3.00;;;;;;;29.16;nan;99476.34;5017215;28;20469;-80
2023/06/05 07:44:21;;;;;;;3.97;3.50;;;;;;;28.94;nan;99476.69;5020128;28;20263;-81
2023/06/05 07:46:48;;;;;;;4.20;3.30;;;;;;;29.00;nan;99474.97;5019531;28;20489;-81
2023/06/05 07:49:15;;;;;;;8.73;4.40;;;;;;;29.13;nan;99466.78;5018459;28;20211;-80
2023/06/05 07:51:42;;;;;;;4.70;3.87;;;;;;;28.86;nan;99474.28;5019155;28;20961;-81
2023/06/05 07:54:11;;;;;;;4.10;3.10;;;;;;;28.66;nan;99475.25;5018455;28;20460;-81
2023/06/05 07:56:38;;;;;;;4.17;2.73;;;;;;;28.50;nan;99478.47;5019384;28;20455;-81
2023/06/05 07:59:05;;;;;;;4.43;3.20;;;;;;;28.45;nan;99471.03;5020079;28;20465;-82
2023/06/05 08:01:30;;;;;;;5.57;3.73;;;;;;;28.34;nan;99471.69;5020994;28;20470;-81
2023/06/05 08:03:56;;;;;;;4.03;3.10;;;;;;;28.29;nan;99467.97;5018002;28;20444;-80
2023/06/05 08:06:24;;;;;;;4.50;3.40;;;;;;;28.33;nan;99461.13;5017834;28;20452;-81
2023/06/05 08:08:50;;;;;;;4.43;3.47;;;;;;;28.24;nan;99452.41;5018894;28;20225;-80
2023/06/05 08:11:15;;;;;;;5.63;3.00;;;;;;;28.29;nan;99460.69;5017949;28;21042;-81
2023/06/05 08:13:40;;;;;;;3.53;2.67;;;;;;;28.26;nan;99463.84;5018615;28;20447;-81
2023/06/05 08:16:06;;;;;;;5.33;3.03;;;;;;;28.15;nan;99459.13;5020599;28;20206;-80
2023/06/05 08:18:32;;;;;;;2.57;2.37;;;;;;;27.96;nan;99459.00;5017835;28;20248;-81
2023/06/05 08:20:57;;;;;;;2.53;2.30;;;;;;;27.85;nan;99451.56;5018210;28;20218;-81
2023/06/05 08:23:22;;;;;;;4.17;2.57;;;;;;;27.77;nan;99452.59;5019040;28;20423;-80
2023/06/05 08:25:48;;;;;;;4.63;3.43;;;;;;;27.80;nan;99459.47;5020079;28;20198;-80
2023/06/05 08:28:15;;;;;;;2.10;1.87;;;;;;;27.76;nan;99450.09;5019568;28;20609;-80
2023/06/05 08:30:41;;;;;;;3.10;2.80;;;;;;;27.60;nan;99459.53;5020058;28;20211;-80
2023/06/05 08:33:06;;;;;;;4.97;2.50;;;;;;;27.32;nan;99451.69;5020738;28;20465;-81
2023/06/05 08:35:31;;;;;;;3.30;3.00;;;;;;;27.20;nan;99453.38;5022418;28;20211;-81
2023/06/05 08:37:58;;;;;;;3.10;2.70;;;;;;;27.18;nan;99447.34;5018988;28;20214;-81
2023/06/05 08:40:28;;;;;;;3.93;3.00;;;;;;;27.25;nan;99438.22;5018848;28;21099;-81
2023/06/05 08:42:54;;;;;;;2.43;2.10;;;;;;;27.29;nan;99435.94;5019419;28;21104;-81
2023/06/05 08:45:19;;;;;;;4.60;2.50;;;;;;;27.26;nan;99436.34;5017511;28;20664;-80
2023/06/05 08:47:49;;;;;;;5.20;2.73;;;;;;;27.22;nan;99446.75;5019818;28;20480;-80
2023/06/05 08:50:16;;;;;;;3.57;2.27;;;;;;;27.20;nan;99443.41;5018262;28;20221;-81
2023/06/05 08:52:43;;;;;;;3.83;2.63;;;;;;;27.21;nan;99430.75;5016249;28;20473;-81
2023/06/05 08:55:10;;;;;;;2.50;2.20;;;;;;;27.28;nan;99436.97;5016834;28;20455;-80
2023/06/05 08:57:38;;;;;;;2.47;2.27;;;;;;;27.34;nan;99426.16;5017516;28;20461;-80
2023/06/05 09:00:07;;;;;;;2.97;2.67;;;;;;;27.41;nan;99434.25;5016082;28;20469;-80
2023/06/05 09:02:33;;;;;;;5.83;2.50;;;;;;;27.51;nan;99426.53;5015375;28;20860;-80
2023/06/05 09:05:01;;;;;;;4.93;2.80;;;;;;;27.54;nan;99418.03;5015955;28;20707;-80
2023/06/05 09:07:29;;;;;;;5.80;2.43;;;;;;;27.57;nan;99419.44;5017071;28;20488;-80
2023/06/05 09:09:54;;;;;;;3.43;2.43;;;;;;;27.61;nan;99419.88;5016437;28;20465;-80
2023/06/05 09:12:20;;;;;;;2.93;2.17;;;;;;;27.77;nan;99419.38;5014696;28;20460;-81
2023/06/05 09:14:45;;;;;;;3.20;2.47;;;;;;;27.90;nan;99416.66;5017748;28;20671;-81
2023/06/05 09:17:14;;;;;;;4.70;3.10;;;;;;;28.00;nan;99411.63;5017103;28;20293;-80
2023/06/05 09:19:43;;;;;;;3.17;2.43;;;;;;;28.07;nan;99416.16;5017821;28;20564;-80
2023/06/05 09:22:09;;;;;;;6.17;3.20;;;;;;;28.04;nan;99413.91;5019000;28;21028;-81
2023/06/05 09:24:36;;;;;;;3.23;2.30;;;;;;;28.11;nan;99407.44;5018240;28;20443;-80
2023/06/05 09:27:10;;;;;;;6.10;2.60;;;;;;;28.19;nan;99406.31;5018342;28;20479;-80
2023/06/05 09:29:37;;;;;;;5.57;2.73;;;;;;;28.12;nan;99397.44;5016902;28;20561;-80
2023/06/05 09:32:23;;;;;;;5.17;2.70;;;;;;;28.15;nan;99403.22;5017423;28;21134;-80
2023/06/05 09:34:59;;;;;;;6.70;2.90;;;;;;;28.14;nan;99403.44;5017827;28;20863;-80
2023/06/05 09:37:36;;;;;;;4.40;2.70;;;;;;;28.14;nan;99398.88;5016238;28;20451;-80
2023/06/05 09:40:04;;;;;;;6.00;2.67;;;;;;;28.21;nan;99393.44;5018474;28;20595;-80
2023/06/05 09:42:33;;;;;;;3.63;2.90;;;;;;;28.21;nan;99388.84;5021932;28;20465;-80
2023/06/05 09:45:00;;;;;;;5.77;2.30;;;;;;;28.15;nan;99386.22;5023356;28;20462;-80
2023/06/05 09:47:25;;;;;;;3.77;2.17;;;;;;;28.15;nan;99391.59;5024758;28;20470;-80
2023/06/05 09:49:51;;;;;;;8.60;3.07;;;;;;;28.18;nan;99391.16;5023352;28;20473;-80
2023/06/05 09:52:16;;;;;;;4.60;2.40;;;;;;;28.24;nan;99385.72;5023160;28;20246;-80
2023/06/05 09:54:47;;;;;;;5.87;3.83;;;;;;;28.29;nan;99386.94;5026075;28;20305;-80
2023/06/05 09:57:14;;;;;;;4.07;2.60;;;;;;;28.26;nan;99377.41;5023123;28;20203;-80
2023/06/05 09:59:51;;;;;;;5.67;3.43;;;;;;;28.16;nan;99379.75;5021562;28;20864;-81
2023/06/05 10:02:33;;;;;;;7.07;3.00;;;;;;;28.13;nan;99383.72;5025525;28;20470;-80
2023/06/05 10:05:04;;;;;;;7.10;3.00;;;;;;;28.14;nan;99379.97;5023901;28;20521;-80
2023/06/05 10:07:34;;;;;;;4.03;3.27;;;;;;;28.24;nan;99374.91;5021359;28;20488;-80
2023/06/05 10:10:00;;;;;;;3.60;2.40;;;;;;;28.27;nan;99368.25;5024642;28;20458;-80
2023/06/05 10:12:27;;;;;;;4.70;2.73;;;;;;;28.28;nan;99380.72;5023546;28;20504;-80
2023/06/05 10:14:54;;;;;;;2.70;2.40;;;;;;;28.35;nan;99369.84;5025081;28;20465;-80
2023/06/05 10:17:21;;;;;;;6.70;2.90;;;;;;;28.34;nan;99373.63;5021352;28;20938;-80
2023/06/05 10:19:46;;;;;;;4.90;3.00;;;;;;;28.31;nan;99366.78;5019472;28;20477;-80
2023/06/05 10:22:12;;;;;;;3.47;3.10;;;;;;;28.29;nan;99366.16;5021287;28;20466;-80
2023/06/05 10:24:44;;;;;;;2.77;2.40;;;;;;;28.28;nan;99363.69;5018235;28;20618;-79
2023/06/05 10:27:09;;;;;;;3.30;2.90;;;;;;;28.26;nan;99361.19;5022062;28;20249;-80
2023/06/05 10:29:47;;;;;;;3.40;2.43;;;;;;;28.29;nan;99349.94;5022471;28;21295;-80
2023/06/05 10:32:16;;;;;;;4.57;2.90;;;;;;;28.45;nan;99354.03;5024736;28;20211;-79
2023/06/05 10:35:12;;;;;;;3.70;2.90;;;;;;;28.61;nan;99358.06;5024009;28;20430;-79
2023/06/05 10:38:00;;;;;;;7.33;3.10;;;;;;;28.77;nan;99345.84;4994357;28;20445;-79
2023/06/05 10:40:26;;;;;;;4.30;2.83;;;;;;;28.86;nan;99344.50;5024203;28;20720;-80
2023/06/05 10:42:52;;;;;;;5.30;3.00;;;;;;;28.89;nan;99344.06;5023187;28;20839;-80
2023/06/05 10:45:33;;;;;;;3.73;3.37;;;;;;;28.88;nan;99343.22;5025393;28;20965;-80
2023/06/05 10:47:59;;;;;;;3.53;3.07;;;;;;;28.82;nan;99344.13;5024718;28;20854;-80
2023/06/05 10:50:27;;;;;;;3.80;2.93;;;;;;;28.81;nan;99337.09;5022386;28;20537;-80
2023/06/05 10:52:54;;;;;;;7.13;3.03;;;;;;;28.74;nan;99347.13;5020593;28;20204;-80
2023/06/05 10:55:22;;;;;;;6.50;3.20;;;;;;;28.74;nan;99344.41;5026791;28;20900;-80
2023/06/05 10:58:15;;;;;;;2.83;2.63;;;;;;;28.86;nan;99341.78;5023353;28;20442;-80
2023/06/05 11:01:18;;;;;;;5.40;3.80;;;;;;;29.02;nan;99343.91;5020707;28;20891;-80
2023/06/05 11:03:59;;;;;;;3.50;3.07;;;;;;;29.06;nan;99341.63;5023407;28;20465;-80
2023/06/05 11:06:26;;;;;;;4.93;3.30;;;;;;;28.87;nan;99338.88;5022568;28;20460;-80
2023/06/05 11:09:14;;;;;;;5.20;3.30;;;;;;;28.92;nan;99337.38;5022917;28;20589;-80
2023/06/05 11:12:02;;;;;;;4.43;3.57;;;;;;;28.84;nan;99339.34;5021718;28;20631;-80
2023/06/05 11:14:45;;;;;;;5.20;3.03;;;;;;;28.95;nan;99339.63;5022432;28;20453;-80
2023/06/05 11:17:32;;;;;;;4.23;3.50;;;;;;;28.89;nan;99342.19;5026404;28;20470;-80
2023/06/05 11:19:59;;;;;;;5.33;3.10;;;;;;;28.88;nan;99343.22;5026056;28;20472;-80
2023/06/05 11:22:26;;;;;;;3.00;2.73;;;;;;;28.85;nan;99338.28;5026953;28;20975;-80
2023/06/05 11:25:24;;;;;;;4.90;3.40;;;;;;;28.62;nan;99340.78;5026938;28;20469;-80
2023/06/05 11:27:52;;;;;;;4.13;3.10;;;;;;;28.64;nan;99330.56;5026221;28;20819;-80
2023/06/05 11:30:23;;;;;;;3.57;2.83;;;;;;;28.67;nan;99330.13;5026219;28;20466;-80
2023/06/05 11:32:52;;;;;;;5.97;3.30;;;;;;;28.65;nan;99324.97;5023864;28;20443;-80
2023/06/05 11:35:21;;;;;;;4.33;2.77;;;;;;;28.68;nan;99326.41;5026079;28;20997;-81
2023/06/05 11:37:46;;;;;;;5.53;3.30;;;;;;;28.71;nan;99325.94;5026475;28;20559;-80
2023/06/05 11:40:24;;;;;;;3.93;3.33;;;;;;;28.78;nan;99326.69;5025633;28;20559;-80
2023/06/05 11:42:49;;;;;;;3.83;2.90;;;;;;;28.85;nan;99326.63;5024867;28;20222;-81
2023/06/05 11:45:15;;;;;;;3.70;3.30;;;;;;;28.92;nan;99319.25;5027556;28;20461;-80
2023/06/05 11:47:41;;;;;;;2.97;2.77;;;;;;;29.00;nan;99323.56;5025973;28;20295;-80
2023/06/05 11:50:14;;;;;;;4.73;3.10;;;;;;;28.87;nan;99314.56;5023584;28;20206;-80
2023/06/05 11:52:41;;;;;;;4.20;3.40;;;;;;;28.90;nan;99322.22;5025877;28;20489;-80
2023/06/05 11:55:21;;;;;;;7.07;2.90;;;;;;;28.83;nan;99315.22;5027034;28;20501;-80